Time;durP1;ratioP1;P1;durP2;ratioP2;P2;SDS_P1;SDS_P2;PMS_P1;PMS_P2;Temp;Humidity;BMP_temperature;BMP_pressure;BME280_temperature;BME280_humidity;BME280_pressure;Samples;Min_cycle;Max_cycle;Signal;HPM_P1;HPM_P2
2021/08/31 00:01:08;;;;;;;9.48;6.43;;;16.50;99.90;;;;;;5080514;28;20123;-86
2021/08/31 00:03:34;;;;;;;8.35;6.43;;;16.40;99.90;;;;;;5082220;28;20119;-86
2021/08/31 00:06:00;;;;;;;14.38;6.65;;;16.40;99.90;;;;;;5090428;28;20047;-85
2021/08/31 00:08:25;;;;;;;9.45;6.47;;;16.40;99.90;;;;;;5090863;28;20445;-85
2021/08/31 00:10:51;;;;;;;10.13;6.28;;;16.40;99.90;;;;;;5096707;28;20063;-86
2021/08/31 00:13:16;;;;;;;10.35;6.38;;;16.40;99.90;;;;;;5084385;28;20040;-86
2021/08/31 00:15:42;;;;;;;8.73;6.72;;;16.40;99.90;;;;;;5096459;28;20040;-86
2021/08/31 00:18:07;;;;;;;11.30;6.72;;;16.40;99.90;;;;;;5071629;28;20041;-85
2021/08/31 00:20:33;;;;;;;11.48;7.07;;;16.40;99.90;;;;;;5086768;28;20036;-85
2021/08/31 00:22:58;;;;;;;8.68;6.25;;;16.40;99.90;;;;;;5077928;28;20044;-84
2021/08/31 00:25:24;;;;;;;9.13;6.80;;;16.40;99.90;;;;;;5083139;28;20131;-84
2021/08/31 00:27:49;;;;;;;10.90;7.55;;;16.40;99.90;;;;;;5080734;28;20052;-85
2021/08/31 00:30:15;;;;;;;7.68;5.68;;;16.40;99.90;;;;;;5091864;28;20051;-84
2021/08/31 00:32:41;;;;;;;10.95;7.38;;;16.40;99.90;;;;;;5085830;28;20051;-84
2021/08/31 00:35:07;;;;;;;12.65;6.65;;;16.30;99.90;;;;;;5088890;28;20036;-85
2021/08/31 00:37:32;;;;;;;11.05;7.57;;;16.30;99.90;;;;;;5089238;28;20410;-84
2021/08/31 00:39:58;;;;;;;9.90;6.18;;;16.30;99.90;;;;;;5096694;28;20031;-83
2021/08/31 00:42:23;;;;;;;10.93;6.45;;;16.30;99.90;;;;;;5093335;28;20321;-86
2021/08/31 00:44:49;;;;;;;10.13;5.88;;;16.30;99.90;;;;;;5096008;28;20086;-84
2021/08/31 00:47:15;;;;;;;9.18;6.32;;;16.20;99.90;;;;;;5089743;28;20086;-87
2021/08/31 00:49:40;;;;;;;7.95;6.50;;;16.30;99.90;;;;;;5094039;28;20044;-86
2021/08/31 00:52:06;;;;;;;10.95;6.82;;;16.30;99.90;;;;;;5083194;28;20047;-85
2021/08/31 00:54:32;;;;;;;11.50;7.00;;;16.20;99.90;;;;;;5092255;28;20051;-84
2021/08/31 00:57:01;;;;;;;9.02;6.60;;;16.10;99.90;;;;;;5083346;28;20032;-88
2021/08/31 00:59:27;;;;;;;8.65;6.90;;;16.20;99.90;;;;;;5102761;28;20100;-83
2021/08/31 01:01:53;;;;;;;8.65;6.15;;;16.10;99.90;;;;;;5097547;28;20040;-84
2021/08/31 01:04:23;;;;;;;9.00;6.05;;;16.20;99.90;;;;;;5083883;28;20070;-84
2021/08/31 01:06:52;;;;;;;9.02;5.60;;;16.10;99.90;;;;;;5087136;28;20051;-85
2021/08/31 01:09:19;;;;;;;9.70;5.78;;;16.10;99.90;;;;;;5077502;28;20043;-85
2021/08/31 01:11:50;;;;;;;6.97;6.10;;;16.00;99.90;;;;;;5069127;28;20043;-85
2021/08/31 01:14:17;;;;;;;8.57;6.10;;;16.00;99.90;;;;;;5087196;28;20040;-85
2021/08/31 01:16:42;;;;;;;9.18;5.63;;;16.00;99.90;;;;;;5093806;28;20044;-85
2021/08/31 01:19:08;;;;;;;10.27;5.40;;;16.00;99.90;;;;;;5088268;28;20031;-85
2021/08/31 01:21:34;;;;;;;7.22;5.55;;;16.00;99.90;;;;;;5093057;28;20044;-84
2021/08/31 01:24:00;;;;;;;9.93;5.90;;;16.10;99.90;;;;;;5074069;28;20036;-85
2021/08/31 01:26:29;;;;;;;10.60;5.50;;;16.10;99.90;;;;;;5083712;28;20090;-86
2021/08/31 01:28:55;;;;;;;8.07;6.05;;;16.20;99.90;;;;;;5089557;28;20048;-85
2021/08/31 01:31:20;;;;;;;8.82;5.32;;;16.10;99.90;;;;;;5069623;28;20040;-85
2021/08/31 01:33:46;;;;;;;9.40;6.43;;;16.20;99.90;;;;;;5081932;28;20040;-86
2021/08/31 01:36:22;;;;;;;8.88;6.05;;;16.00;99.90;;;;;;5078186;28;20119;-85
2021/08/31 01:38:50;;;;;;;6.60;5.38;;;16.00;99.90;;;;;;5093816;28;20079;-85
2021/08/31 01:41:16;;;;;;;8.68;5.95;;;16.00;99.90;;;;;;5081956;28;20043;-85
2021/08/31 01:43:42;;;;;;;10.75;5.28;;;16.00;99.90;;;;;;5084815;28;20052;-85
2021/08/31 01:46:08;;;;;;;11.10;6.05;;;16.00;99.90;;;;;;5118990;28;20048;-86
2021/08/31 01:48:33;;;;;;;8.32;5.75;;;16.00;99.90;;;;;;5077276;28;20071;-86
2021/08/31 01:50:59;;;;;;;7.82;6.30;;;16.00;99.90;;;;;;5083374;28;20082;-85
2021/08/31 01:53:25;;;;;;;9.00;5.20;;;16.10;99.90;;;;;;5086284;28;20415;-87
2021/08/31 01:55:50;;;;;;;7.85;5.82;;;16.10;99.90;;;;;;5084396;28;20044;-87
2021/08/31 01:58:17;;;;;;;7.68;5.75;;;16.10;99.90;;;;;;5096202;28;20032;-85
2021/08/31 02:00:42;;;;;;;10.88;6.38;;;16.00;99.90;;;;;;5085235;28;20052;-86
2021/08/31 02:03:08;;;;;;;10.38;5.43;;;16.10;99.90;;;;;;5089590;28;20039;-85
2021/08/31 02:05:33;;;;;;;15.30;6.57;;;16.00;99.90;;;;;;5081544;28;20063;-85
2021/08/31 02:07:59;;;;;;;8.38;6.60;;;16.00;99.90;;;;;;5081685;28;20044;-84
2021/08/31 02:10:25;;;;;;;8.13;6.40;;;16.00;99.90;;;;;;5071852;28;20055;-85
2021/08/31 02:12:50;;;;;;;13.75;7.22;;;16.00;99.90;;;;;;5078885;28;20049;-87
2021/08/31 02:15:16;;;;;;;9.73;5.57;;;15.90;99.90;;;;;;5083589;28;20036;-87
2021/08/31 02:17:42;;;;;;;12.73;5.95;;;15.90;99.90;;;;;;5080811;28;20062;-88
2021/08/31 02:20:09;;;;;;;7.65;5.78;;;15.90;99.90;;;;;;5084140;28;20032;-87
2021/08/31 02:22:34;;;;;;;7.22;5.90;;;15.90;99.90;;;;;;5087336;28;20098;-88
2021/08/31 02:25:00;;;;;;;11.05;6.22;;;15.90;99.90;;;;;;5080961;28;20040;-86
2021/08/31 02:27:25;;;;;;;9.00;6.20;;;15.90;99.90;;;;;;5074502;28;20146;-87
2021/08/31 02:29:51;;;;;;;10.20;5.93;;;15.90;99.90;;;;;;5064206;28;20037;-86
2021/08/31 02:32:16;;;;;;;9.63;5.47;;;15.90;99.90;;;;;;5093775;28;20036;-86
2021/08/31 02:34:42;;;;;;;9.90;6.60;;;15.90;99.90;;;;;;5088720;28;20052;-87
2021/08/31 02:37:07;;;;;;;15.40;6.05;;;15.90;99.90;;;;;;5081126;28;20047;-86
2021/08/31 02:39:33;;;;;;;7.78;5.55;;;16.00;99.90;;;;;;5090542;28;20067;-86
2021/08/31 02:41:59;;;;;;;8.45;6.57;;;15.90;99.90;;;;;;5097799;28;20569;-86
2021/08/31 02:44:25;;;;;;;9.30;5.82;;;16.00;99.90;;;;;;5088808;28;20044;-86
2021/08/31 02:46:50;;;;;;;9.80;6.15;;;16.00;99.90;;;;;;5086961;28;20359;-86
2021/08/31 02:49:16;;;;;;;8.07;5.43;;;16.00;99.90;;;;;;5125094;27;20036;-85
2021/08/31 02:51:41;;;;;;;9.68;7.18;;;16.00;99.90;;;;;;5090606;28;20047;-85
2021/08/31 02:54:07;;;;;;;8.75;6.32;;;16.00;99.90;;;;;;5093022;28;20040;-85
2021/08/31 02:56:32;;;;;;;9.55;6.68;;;15.90;99.90;;;;;;5094805;28;20202;-86
2021/08/31 02:58:58;;;;;;;13.20;7.25;;;16.00;99.90;;;;;;5083197;28;20046;-87
2021/08/31 03:02:04;;;;;;;10.85;7.00;;;16.00;99.90;;;;;;5087444;28;20071;-85
2021/08/31 03:04:24;;;;;;;10.43;6.15;;;15.90;99.90;;;;;;5093112;28;20040;-87
2021/08/31 03:06:55;;;;;;;10.48;7.60;;;15.90;99.90;;;;;;5100478;28;20066;-85
2021/08/31 03:09:21;;;;;;;12.17;6.63;;;15.90;99.90;;;;;;5098558;28;20040;-87
2021/08/31 03:11:48;;;;;;;10.45;6.15;;;15.80;99.90;;;;;;5079911;28;20040;-85
2021/08/31 03:14:18;;;;;;;12.57;7.05;;;15.80;99.90;;;;;;5085668;28;20035;-87
2021/08/31 03:16:44;;;;;;;11.50;7.40;;;15.80;99.90;;;;;;5086596;28;20550;-86
2021/08/31 03:19:11;;;;;;;11.52;7.05;;;15.80;99.90;;;;;;5086706;28;20040;-85
2021/08/31 03:21:37;;;;;;;10.60;6.53;;;15.70;99.90;;;;;;5080422;28;20094;-87
2021/08/31 03:24:02;;;;;;;13.43;7.68;;;15.70;99.90;;;;;;5083191;28;20459;-85
2021/08/31 03:26:28;;;;;;;9.20;6.65;;;15.70;99.90;;;;;;5081472;28;20048;-83
2021/08/31 03:28:53;;;;;;;10.98;6.93;;;15.70;99.90;;;;;;5081011;28;20060;-84
2021/08/31 03:31:19;;;;;;;10.90;6.75;;;15.70;99.90;;;;;;5086566;28;20174;-86
2021/08/31 03:33:44;;;;;;;8.80;6.95;;;15.70;99.90;;;;;;5084952;28;20033;-87
2021/08/31 03:36:10;;;;;;;11.57;7.28;;;15.60;99.90;;;;;;5087181;28;20705;-86
2021/08/31 03:38:35;;;;;;;10.80;7.35;;;15.60;99.90;;;;;;5083423;28;20040;-87
2021/08/31 03:41:01;;;;;;;14.63;7.97;;;15.60;99.90;;;;;;5084844;28;20047;-86
2021/08/31 03:43:26;;;;;;;11.30;6.47;;;15.60;99.90;;;;;;5083583;28;20047;-85
2021/08/31 03:45:52;;;;;;;11.60;7.25;;;15.60;99.90;;;;;;5078156;28;20054;-88
2021/08/31 03:48:17;;;;;;;9.63;5.95;;;15.60;99.90;;;;;;5085044;28;20036;-87
2021/08/31 03:50:43;;;;;;;10.10;6.22;;;15.60;99.90;;;;;;5085994;28;20125;-86
2021/08/31 03:53:08;;;;;;;9.63;6.15;;;15.60;99.90;;;;;;5078495;28;20036;-85
2021/08/31 03:55:34;;;;;;;15.00;6.45;;;15.60;99.90;;;;;;5093392;28;20032;-85
2021/08/31 03:58:00;;;;;;;9.63;7.25;;;15.50;99.90;;;;;;5085135;28;20120;-86
2021/08/31 04:00:26;;;;;;;12.63;7.30;;;15.60;99.90;;;;;;5086929;28;20134;-84
2021/08/31 04:02:51;;;;;;;10.85;7.50;;;15.60;99.90;;;;;;5086310;28;20048;-86
2021/08/31 04:05:17;;;;;;;11.88;7.47;;;15.60;99.90;;;;;;5086122;28;20143;-85
2021/08/31 04:07:42;;;;;;;9.73;6.53;;;15.60;99.90;;;;;;5086126;28;20036;-87
2021/08/31 04:10:09;;;;;;;11.48;7.85;;;15.60;99.90;;;;;;5087539;28;20036;-85
2021/08/31 04:12:34;;;;;;;11.52;6.55;;;15.60;99.90;;;;;;5079076;28;20032;-85
2021/08/31 04:15:00;;;;;;;12.55;7.13;;;15.60;99.90;;;;;;5077725;28;20530;-85
2021/08/31 04:17:25;;;;;;;10.10;7.45;;;15.60;99.90;;;;;;5071104;28;20284;-85
2021/08/31 04:19:50;;;;;;;11.98;7.18;;;15.50;99.90;;;;;;5085418;28;20384;-85
2021/08/31 04:22:16;;;;;;;11.10;7.50;;;15.50;99.90;;;;;;5088898;28;20040;-85
2021/08/31 04:24:41;;;;;;;13.73;7.38;;;15.50;99.90;;;;;;5088772;28;20285;-85
2021/08/31 04:27:07;;;;;;;12.50;6.95;;;15.50;99.90;;;;;;5084328;28;20067;-86
2021/08/31 04:29:33;;;;;;;13.35;7.55;;;15.50;99.90;;;;;;5068752;28;20115;-86
2021/08/31 04:31:58;;;;;;;11.73;8.00;;;15.50;99.90;;;;;;5074541;28;20435;-88
2021/08/31 04:34:24;;;;;;;13.15;7.30;;;15.50;99.90;;;;;;5075883;28;20485;-86
2021/08/31 04:36:49;;;;;;;10.32;7.30;;;15.60;99.90;;;;;;5073419;28;20078;-84
2021/08/31 04:39:27;;;;;;;10.02;7.25;;;15.60;99.90;;;;;;5115504;28;20072;-83
2021/08/31 04:41:53;;;;;;;12.30;7.68;;;15.60;99.90;;;;;;5103459;28;20155;-85
2021/08/31 04:44:18;;;;;;;10.35;7.68;;;15.60;99.90;;;;;;5079088;28;20395;-86
2021/08/31 04:46:44;;;;;;;10.50;7.05;;;15.60;99.90;;;;;;5087341;28;20140;-86
2021/08/31 04:49:09;;;;;;;11.27;7.57;;;15.60;99.90;;;;;;5074551;28;20351;-85
2021/08/31 04:51:35;;;;;;;8.65;7.07;;;15.50;99.90;;;;;;5079192;28;20048;-86
2021/08/31 04:54:00;;;;;;;7.88;6.32;;;15.50;99.90;;;;;;5075153;28;20036;-87
2021/08/31 04:56:26;;;;;;;9.10;6.20;;;15.50;99.90;;;;;;5076813;28;20308;-87
2021/08/31 04:58:51;;;;;;;12.38;7.93;;;15.50;99.90;;;;;;5071732;28;20037;-88
2021/08/31 05:01:17;;;;;;;8.77;6.00;;;15.50;99.90;;;;;;5067970;28;20385;-85
2021/08/31 05:03:43;;;;;;;10.88;6.68;;;15.50;99.90;;;;;;5074942;28;20056;-86
2021/08/31 05:06:09;;;;;;;8.05;5.85;;;15.60;99.90;;;;;;5088534;28;20052;-86
2021/08/31 05:08:35;;;;;;;7.55;5.70;;;15.50;99.90;;;;;;5081015;28;20037;-86
2021/08/31 05:11:01;;;;;;;11.15;6.78;;;15.60;99.90;;;;;;5093348;28;20040;-86
2021/08/31 05:13:27;;;;;;;7.90;6.05;;;15.60;99.90;;;;;;5094997;28;20048;-87
2021/08/31 05:15:53;;;;;;;8.75;6.00;;;15.70;99.90;;;;;;5088176;28;20365;-87
2021/08/31 05:18:18;;;;;;;8.68;6.45;;;15.60;99.90;;;;;;5097287;28;20076;-86
2021/08/31 05:20:44;;;;;;;8.95;5.43;;;15.60;99.90;;;;;;5095316;28;20036;-87
2021/08/31 05:23:10;;;;;;;8.68;5.70;;;15.70;99.90;;;;;;5081464;28;20031;-84
2021/08/31 05:25:35;;;;;;;10.52;5.43;;;15.60;99.90;;;;;;5083168;28;20086;-85
2021/08/31 05:28:01;;;;;;;7.35;6.35;;;15.70;99.90;;;;;;5070887;28;20467;-87
2021/08/31 05:30:26;;;;;;;7.47;5.43;;;15.60;99.90;;;;;;5066548;28;20041;-87
2021/08/31 05:32:52;;;;;;;7.68;5.32;;;15.60;99.90;;;;;;5066682;28;20101;-87
2021/08/31 05:35:17;;;;;;;12.45;6.85;;;15.70;99.90;;;;;;5088860;28;20474;-88
2021/08/31 05:37:43;;;;;;;9.35;5.55;;;15.70;99.90;;;;;;5083273;28;20044;-84
2021/08/31 05:40:09;;;;;;;6.45;5.18;;;15.80;99.90;;;;;;5081224;28;20024;-84
2021/08/31 05:42:35;;;;;;;10.25;5.63;;;15.80;99.90;;;;;;5094352;28;20039;-86
2021/08/31 05:45:00;;;;;;;8.52;6.25;;;15.80;99.90;;;;;;5067806;28;20080;-84
2021/08/31 05:47:26;;;;;;;7.82;5.95;;;15.80;99.90;;;;;;5089126;28;20061;-85
2021/08/31 05:49:51;;;;;;;10.25;6.07;;;15.80;99.90;;;;;;5062942;28;20123;-85
2021/08/31 05:52:17;;;;;;;7.95;5.90;;;15.80;99.90;;;;;;5067387;28;20096;-85
2021/08/31 05:54:42;;;;;;;7.05;5.57;;;15.80;99.90;;;;;;5073250;28;20044;-84
2021/08/31 05:57:10;;;;;;;10.52;6.03;;;15.90;99.90;;;;;;5083223;28;20042;-84
2021/08/31 05:59:40;;;;;;;8.70;5.57;;;15.90;99.90;;;;;;5091899;28;20039;-87
2021/08/31 06:02:10;;;;;;;7.35;5.78;;;16.00;99.90;;;;;;5087960;28;20083;-87
2021/08/31 06:04:36;;;;;;;9.73;5.40;;;16.00;99.90;;;;;;5090313;28;20383;-86
2021/08/31 06:07:04;;;;;;;8.73;5.57;;;16.00;99.90;;;;;;5096702;28;20047;-87
2021/08/31 06:09:31;;;;;;;7.82;5.60;;;16.10;99.90;;;;;;5098906;28;20307;-87
2021/08/31 06:11:58;;;;;;;10.15;6.35;;;16.10;99.90;;;;;;5084487;28;20066;-87
2021/08/31 06:14:23;;;;;;;8.40;5.80;;;16.10;99.90;;;;;;5095059;28;20040;-87
2021/08/31 06:16:49;;;;;;;7.07;5.45;;;16.10;99.90;;;;;;5079339;28;20047;-86
2021/08/31 06:19:16;;;;;;;7.35;5.38;;;16.10;99.90;;;;;;5088758;28;20306;-86
2021/08/31 06:21:42;;;;;;;6.75;5.68;;;16.10;99.90;;;;;;5082511;28;20040;-87
2021/08/31 06:24:07;;;;;;;11.73;5.63;;;16.10;99.90;;;;;;5090090;28;20116;-86
2021/08/31 06:26:33;;;;;;;7.22;5.88;;;16.10;99.90;;;;;;5086970;28;20128;-86
2021/08/31 06:28:59;;;;;;;9.70;5.25;;;16.10;99.90;;;;;;5086639;28;20041;-87
2021/08/31 06:31:24;;;;;;;8.93;5.40;;;16.10;99.90;;;;;;5097226;28;20036;-88
2021/08/31 06:33:50;;;;;;;6.68;5.15;;;16.10;99.90;;;;;;5088308;28;20285;-88
2021/08/31 06:36:15;;;;;;;10.13;5.65;;;16.20;99.90;;;;;;5081064;28;20319;-86
2021/08/31 06:38:42;;;;;;;8.60;5.65;;;16.20;99.90;;;;;;5092014;28;20131;-87
2021/08/31 06:41:08;;;;;;;9.88;5.72;;;16.30;99.90;;;;;;5090903;28;20099;-88
2021/08/31 06:43:33;;;;;;;7.53;5.28;;;16.40;99.90;;;;;;5085609;28;20343;-87
2021/08/31 06:45:59;;;;;;;8.57;5.35;;;16.40;99.90;;;;;;5083895;28;20082;-88
2021/08/31 06:48:24;;;;;;;11.23;4.55;;;16.40;99.90;;;;;;5080505;28;20055;-87
2021/08/31 06:50:50;;;;;;;9.90;6.15;;;16.50;99.90;;;;;;5078572;28;20056;-88
2021/08/31 06:53:16;;;;;;;7.63;5.05;;;16.50;99.90;;;;;;5081205;28;20096;-88
2021/08/31 06:55:42;;;;;;;7.60;5.20;;;16.60;99.90;;;;;;5104115;28;20049;-90
2021/08/31 06:58:08;;;;;;;6.53;4.32;;;16.60;99.90;;;;;;5092655;28;20133;-87
2021/08/31 07:00:34;;;;;;;6.95;4.70;;;16.60;99.90;;;;;;5077552;28;20049;-86
2021/08/31 07:02:59;;;;;;;10.38;5.57;;;16.60;99.90;;;;;;5076818;28;20044;-89
2021/08/31 07:05:25;;;;;;;9.20;5.70;;;16.60;99.90;;;;;;5096717;28;20112;-87
2021/08/31 07:07:51;;;;;;;6.68;4.95;;;16.70;99.90;;;;;;5092407;28;20041;-86
2021/08/31 07:10:17;;;;;;;6.35;4.93;;;16.70;99.90;;;;;;5077958;28;20036;-89
2021/08/31 07:12:49;;;;;;;7.80;5.57;;;16.70;99.50;;;;;;5078237;28;20051;-89
2021/08/31 07:15:16;;;;;;;5.10;4.55;;;16.80;99.50;;;;;;5077009;28;20043;-89
2021/08/31 07:17:41;;;;;;;6.07;5.00;;;16.90;99.60;;;;;;5086224;28;20288;-88
2021/08/31 07:20:07;;;;;;;7.90;5.50;;;16.90;99.80;;;;;;5077935;28;20044;-86
2021/08/31 07:22:33;;;;;;;5.28;4.35;;;17.00;99.50;;;;;;5091315;28;20444;-85
2021/08/31 07:24:58;;;;;;;7.95;4.68;;;17.00;99.30;;;;;;5077448;28;20035;-86
2021/08/31 07:27:24;;;;;;;5.90;4.43;;;17.10;99.20;;;;;;5077170;28;20041;-86
2021/08/31 07:29:49;;;;;;;8.18;5.03;;;17.10;99.30;;;;;;5082862;28;20035;-87
2021/08/31 07:32:16;;;;;;;6.13;4.55;;;17.10;99.10;;;;;;5079812;28;20036;-86
2021/08/31 07:34:42;;;;;;;7.35;4.82;;;17.20;99.20;;;;;;5075330;28;20056;-86
2021/08/31 07:37:08;;;;;;;6.97;4.93;;;17.20;99.20;;;;;;5080371;28;20028;-85
2021/08/31 07:39:34;;;;;;;6.45;4.93;;;17.30;99.30;;;;;;5095348;28;20039;-87
2021/08/31 07:42:00;;;;;;;7.40;5.07;;;17.40;99.40;;;;;;5080748;28;20036;-87
2021/08/31 07:44:25;;;;;;;7.57;5.50;;;17.40;99.00;;;;;;5095150;28;20080;-87
2021/08/31 07:46:51;;;;;;;6.65;5.22;;;17.40;99.10;;;;;;5091113;28;20036;-87
2021/08/31 07:49:18;;;;;;;7.25;5.18;;;17.50;99.30;;;;;;5076141;28;20029;-87
2021/08/31 07:51:46;;;;;;;6.88;4.70;;;17.50;98.80;;;;;;5076482;28;20685;-87
2021/08/31 07:54:12;;;;;;;7.72;5.25;;;17.50;98.70;;;;;;5083006;28;20039;-87
2021/08/31 07:56:38;;;;;;;10.55;5.30;;;17.50;98.50;;;;;;5083453;28;20396;-87
2021/08/31 07:59:04;;;;;;;6.53;5.50;;;17.50;98.20;;;;;;5076412;28;20376;-86
2021/08/31 08:01:30;;;;;;;8.02;5.97;;;17.50;98.30;;;;;;5076265;28;20051;-88
2021/08/31 08:03:59;;;;;;;6.28;5.40;;;17.50;98.20;;;;;;5076165;28;20051;-86
2021/08/31 08:06:24;;;;;;;12.18;5.72;;;17.60;98.00;;;;;;5074956;28;20129;-86
2021/08/31 08:08:50;;;;;;;7.20;5.30;;;17.60;97.90;;;;;;5092822;28;20439;-87
2021/08/31 08:11:15;;;;;;;6.18;4.93;;;17.60;97.70;;;;;;5089430;28;20071;-86
2021/08/31 08:13:41;;;;;;;5.72;4.88;;;17.50;97.70;;;;;;5080788;28;20036;-85
2021/08/31 08:16:06;;;;;;;9.10;5.85;;;17.50;97.60;;;;;;5074184;28;20068;-86
2021/08/31 08:18:33;;;;;;;6.93;5.38;;;17.50;98.30;;;;;;5075484;28;20044;-87
2021/08/31 08:20:59;;;;;;;5.53;4.75;;;17.50;97.70;;;;;;5076229;28;20089;-87
2021/08/31 08:23:25;;;;;;;6.90;5.28;;;17.60;98.00;;;;;;5076085;28;20067;-86
2021/08/31 08:25:51;;;;;;;8.07;5.38;;;17.60;97.60;;;;;;5075398;28;20040;-88
2021/08/31 08:28:17;;;;;;;7.25;5.18;;;17.70;97.50;;;;;;5087683;28;20093;-88
2021/08/31 08:30:43;;;;;;;6.80;5.22;;;17.80;97.40;;;;;;5091873;28;20448;-88
2021/08/31 08:33:08;;;;;;;9.82;5.32;;;17.90;96.90;;;;;;5076480;28;20060;-84
2021/08/31 08:35:34;;;;;;;6.00;4.80;;;18.00;96.90;;;;;;5074797;28;20079;-86
2021/08/31 08:38:00;;;;;;;6.43;5.25;;;18.10;96.70;;;;;;5075081;28;20029;-85
2021/08/31 08:40:26;;;;;;;7.72;4.70;;;18.10;96.80;;;;;;5074201;28;20432;-86
2021/08/31 08:42:52;;;;;;;9.30;5.10;;;18.30;97.50;;;;;;5074903;28;20040;-86
2021/08/31 08:45:18;;;;;;;6.75;4.85;;;18.40;96.70;;;;;;5074628;28;20119;-86
2021/08/31 08:47:44;;;;;;;8.55;5.10;;;18.50;95.40;;;;;;5078479;28;20085;-86
2021/08/31 08:50:11;;;;;;;7.30;4.70;;;18.60;95.60;;;;;;5088049;28;20322;-87
2021/08/31 08:52:37;;;;;;;6.65;4.95;;;18.70;96.00;;;;;;5074929;28;20055;-86
2021/08/31 08:55:08;;;;;;;7.45;4.72;;;18.80;95.10;;;;;;5075684;28;20020;-87
2021/08/31 08:57:33;;;;;;;7.60;4.80;;;18.80;95.40;;;;;;5076914;28;20040;-86
2021/08/31 08:59:59;;;;;;;6.15;4.90;;;18.90;94.80;;;;;;5075161;28;20036;-87
2021/08/31 09:02:51;;;;;;;6.18;5.22;;;19.00;95.30;;;;;;5074526;28;20036;-87
2021/08/31 09:05:31;;;;;;;6.40;4.40;;;19.10;94.40;;;;;;5082971;28;20042;-88
2021/08/31 09:08:07;;;;;;;6.75;4.75;;;19.20;94.80;;;;;;5077078;28;20143;-86
2021/08/31 09:10:33;;;;;;;5.35;4.65;;;19.20;94.50;;;;;;5086298;28;20040;-86
2021/08/31 09:12:59;;;;;;;6.82;5.20;;;19.20;94.30;;;;;;5075159;28;20128;-86
2021/08/31 09:15:43;;;;;;;5.72;4.50;;;19.20;94.60;;;;;;5071502;28;20033;-88
2021/08/31 09:18:11;;;;;;;6.78;4.68;;;19.40;94.40;;;;;;5063791;28;20044;-85
2021/08/31 09:20:53;;;;;;;7.05;5.75;;;19.40;94.20;;;;;;5080146;28;20401;-86
2021/08/31 09:23:26;;;;;;;8.73;5.70;;;19.40;93.80;;;;;;5061144;28;20614;-87
2021/08/31 09:26:01;;;;;;;5.90;4.50;;;19.30;94.20;;;;;;5064671;28;20036;-86
2021/08/31 09:28:29;;;;;;;7.18;4.60;;;19.20;94.00;;;;;;5075999;28;20036;-87
2021/08/31 09:30:59;;;;;;;6.80;4.47;;;19.20;94.80;;;;;;5073959;28;20051;-87
2021/08/31 09:33:29;;;;;;;5.18;3.92;;;19.20;94.70;;;;;;5086459;28;20092;-88
2021/08/31 09:36:16;;;;;;;5.57;4.65;;;19.20;94.20;;;;;;5095794;28;20050;-86
2021/08/31 09:38:52;;;;;;;7.22;4.18;;;19.20;94.50;;;;;;5090748;28;20033;-89
2021/08/31 09:41:31;;;;;;;6.72;4.63;;;19.20;94.60;;;;;;5058811;28;20045;-87
2021/08/31 09:43:58;;;;;;;7.15;4.70;;;19.30;93.90;;;;;;5054610;28;20170;-86
2021/08/31 09:46:24;;;;;;;8.40;5.53;;;19.20;93.70;;;;;;5097760;28;20037;-88
2021/08/31 09:48:49;;;;;;;6.82;4.35;;;19.10;93.70;;;;;;5074365;28;20050;-86
2021/08/31 09:51:16;;;;;;;6.22;4.65;;;19.10;94.30;;;;;;5074398;28;20424;-88
2021/08/31 09:53:42;;;;;;;5.40;4.35;;;19.20;94.10;;;;;;5093268;28;20082;-88
2021/08/31 09:56:12;;;;;;;8.40;4.25;;;19.20;94.30;;;;;;5078622;28;20044;-89
2021/08/31 09:58:40;;;;;;;5.63;3.47;;;19.20;93.90;;;;;;5077863;28;20029;-88
2021/08/31 10:01:06;;;;;;;7.88;5.00;;;19.20;94.20;;;;;;5075463;28;20041;-87
2021/08/31 10:03:33;;;;;;;6.22;3.95;;;19.20;93.90;;;;;;5075550;28;20037;-86
2021/08/31 10:06:00;;;;;;;5.45;4.20;;;19.30;94.20;;;;;;5079139;28;20041;-87
2021/08/31 10:08:29;;;;;;;5.55;4.88;;;19.30;94.20;;;;;;5076819;28;20064;-87
2021/08/31 10:10:54;;;;;;;4.28;3.65;;;19.30;94.40;;;;;;5074625;28;20046;-89
2021/08/31 10:13:25;;;;;;;6.10;4.25;;;19.40;93.80;;;;;;5080304;28;20052;-87
2021/08/31 10:15:54;;;;;;;5.30;4.18;;;19.50;94.40;;;;;;5080056;28;20024;-86
2021/08/31 10:18:22;;;;;;;8.90;4.00;;;19.50;94.30;;;;;;5074873;28;20032;-87
2021/08/31 10:20:52;;;;;;;5.10;4.28;;;19.50;93.80;;;;;;5074503;28;20342;-89
2021/08/31 10:23:27;;;;;;;5.18;4.40;;;19.50;93.80;;;;;;5075026;28;20036;-87
2021/08/31 10:26:13;;;;;;;3.58;3.25;;;19.50;93.40;;;;;;5073624;28;20681;-87
2021/08/31 10:28:38;;;;;;;5.50;3.78;;;19.60;93.50;;;;;;5074484;28;20051;-88
2021/08/31 10:31:04;;;;;;;4.57;3.75;;;19.50;93.60;;;;;;5075933;28;20659;-88
2021/08/31 10:33:33;;;;;;;6.10;4.65;;;19.50;93.90;;;;;;5079082;28;20047;-89
2021/08/31 10:36:00;;;;;;;6.07;4.10;;;19.50;94.10;;;;;;5094189;28;20033;-87
2021/08/31 10:38:47;;;;;;;6.38;4.70;;;19.50;93.80;;;;;;5088997;28;20042;-88
2021/08/31 10:41:31;;;;;;;5.88;3.80;;;19.40;93.80;;;;;;5099950;28;20390;-87
2021/08/31 10:43:57;;;;;;;5.47;4.05;;;19.40;93.90;;;;;;5090500;28;20036;-88
2021/08/31 10:46:23;;;;;;;5.47;3.92;;;19.40;93.80;;;;;;5092899;28;20559;-90
2021/08/31 10:49:00;;;;;;;7.00;3.53;;;19.40;94.10;;;;;;5096411;28;20044;-88
2021/08/31 10:51:26;;;;;;;7.10;4.65;;;19.60;94.10;;;;;;5098099;28;20392;-89
2021/08/31 10:53:51;;;;;;;4.35;3.55;;;19.80;93.90;;;;;;5091540;28;20036;-88
2021/08/31 10:56:27;;;;;;;4.50;3.90;;;20.00;93.30;;;;;;5085364;28;20029;-87
2021/08/31 10:59:05;;;;;;;6.43;4.60;;;20.10;93.40;;;;;;5084950;28;20060;-88
2021/08/31 11:01:35;;;;;;;4.85;3.50;;;20.10;93.00;;;;;;5087765;28;20132;-88
2021/08/31 11:04:01;;;;;;;4.15;3.38;;;20.00;92.90;;;;;;5097173;28;20067;-87
2021/08/31 11:06:29;;;;;;;4.50;3.75;;;20.10;93.20;;;;;;5095807;28;20040;-88
2021/08/31 11:09:25;;;;;;;5.55;3.70;;;20.30;93.90;;;;;;5095731;28;20039;-88
2021/08/31 11:12:03;;;;;;;5.25;3.88;;;20.50;92.20;;;;;;5063258;28;20044;-87
2021/08/31 11:14:45;;;;;;;4.43;3.58;;;20.50;92.50;;;;;;5081468;28;20127;-86
2021/08/31 11:17:11;;;;;;;;;;;20.60;92.00;;;;;;5094034;28;20037;-88
2021/08/31 11:19:38;;;;;;;5.78;3.80;;;20.60;92.10;;;;;;5094161;28;19912;-89
2021/08/31 11:22:06;;;;;;;4.90;3.85;;;20.70;91.80;;;;;;5086226;28;20131;-89
2021/08/31 11:24:32;;;;;;;5.47;3.40;;;20.90;91.60;;;;;;5081163;28;20205;-87
2021/08/31 11:27:00;;;;;;;5.57;3.55;;;20.90;92.10;;;;;;5086338;28;20064;-88
2021/08/31 11:29:26;;;;;;;4.85;3.83;;;21.10;91.70;;;;;;5083759;28;20365;-86
2021/08/31 11:32:01;;;;;;;6.20;3.72;;;21.00;91.30;;;;;;5078484;28;20036;-85
2021/08/31 11:34:29;;;;;;;5.03;3.33;;;20.90;91.20;;;;;;5084490;28;20040;-88
2021/08/31 11:37:02;;;;;;;7.88;3.35;;;20.90;91.40;;;;;;5080395;28;20092;-88
2021/08/31 11:39:28;;;;;;;4.50;3.53;;;20.70;91.80;;;;;;5081748;28;20047;-88
2021/08/31 11:41:54;;;;;;;4.40;3.78;;;20.70;92.00;;;;;;5082703;28;20040;-88
2021/08/31 11:44:24;;;;;;;6.63;3.70;;;20.80;92.50;;;;;;5078245;28;20036;-88
2021/08/31 11:46:56;;;;;;;4.93;3.85;;;20.80;91.90;;;;;;5080326;28;20041;-87
2021/08/31 11:49:41;;;;;;;4.63;3.58;;;20.80;91.70;;;;;;5078574;28;20037;-90
2021/08/31 11:52:12;;;;;;;6.07;3.40;;;20.90;92.10;;;;;;5081853;28;20048;-89
2021/08/31 11:54:50;;;;;;;4.30;3.30;;;21.00;91.50;;;;;;5077192;28;20033;-89
2021/08/31 11:57:20;;;;;;;4.25;3.20;;;21.00;91.80;;;;;;5100061;28;20051;-88
2021/08/31 11:59:55;;;;;;;4.72;3.17;;;21.10;91.40;;;;;;5081317;28;20036;-90
2021/08/31 12:02:28;;;;;;;5.60;3.60;;;21.10;91.20;;;;;;5080546;28;20036;-89
2021/08/31 12:04:54;;;;;;;4.18;3.38;;;21.10;91.40;;;;;;5077095;28;20041;-88
2021/08/31 12:07:27;;;;;;;2.95;2.55;;;21.00;91.50;;;;;;5078230;28;20097;-85
2021/08/31 12:10:06;;;;;;;5.22;3.47;;;21.00;92.00;;;;;;5077729;28;20105;-87
2021/08/31 12:12:31;;;;;;;4.55;3.30;;;21.10;91.30;;;;;;5077062;28;20497;-86
2021/08/31 12:15:00;;;;;;;4.88;3.05;;;21.20;91.40;;;;;;5077233;28;20032;-87
2021/08/31 12:17:33;;;;;;;3.33;2.75;;;21.30;91.00;;;;;;5087758;28;20098;-87
2021/08/31 12:20:18;;;;;;;3.97;3.15;;;21.40;90.60;;;;;;5085436;28;20032;-89
2021/08/31 12:22:49;;;;;;;4.88;2.90;;;21.50;90.20;;;;;;5077188;28;20036;-88
2021/08/31 12:25:16;;;;;;;4.68;2.90;;;21.50;90.40;;;;;;5076664;28;20040;-90
2021/08/31 12:27:53;;;;;;;4.00;2.80;;;21.60;90.30;;;;;;5088146;28;20055;-88
2021/08/31 12:30:45;;;;;;;3.40;2.95;;;21.60;90.40;;;;;;5096902;28;20104;-89
2021/08/31 12:33:31;;;;;;;5.00;3.80;;;21.50;90.30;;;;;;5097483;28;20071;-87
2021/08/31 12:36:05;;;;;;;3.42;2.85;;;21.40;90.10;;;;;;5095612;28;20066;-91
2021/08/31 12:38:44;;;;;;;4.00;3.00;;;21.50;90.70;;;;;;5067874;28;20033;-88
2021/08/31 12:41:12;;;;;;;4.25;3.63;;;21.70;90.90;;;;;;5060637;28;20323;-88
2021/08/31 12:43:50;;;;;;;4.15;2.65;;;21.90;90.80;;;;;;5093650;28;20036;-89
2021/08/31 12:46:25;;;;;;;4.15;3.10;;;22.00;89.70;;;;;;5076194;28;20040;-89
2021/08/31 12:49:08;;;;;;;4.13;2.75;;;22.10;89.50;;;;;;5091519;28;20043;-86